sensor_id;sensor_type;location;lat;lon;timestamp;P1;durP1;ratioP1;P2;durP2;ratioP2
37131;SDS011;23035;50.032;21.978;2022-10-19T00:04:36;3.30;;;3.00;;
37131;SDS011;23035;50.032;21.978;2022-10-19T00:09:41;3.80;;;3.03;;
37131;SDS011;23035;50.032;21.978;2022-10-19T00:14:46;2.40;;;2.20;;
37131;SDS011;23035;50.032;21.978;2022-10-19T00:19:51;3.13;;;2.80;;
37131;SDS011;23035;50.032;21.978;2022-10-19T00:24:55;2.50;;;2.30;;
37131;SDS011;23035;50.032;21.978;2022-10-19T00:29:59;2.67;;;2.47;;
37131;SDS011;23035;50.032;21.978;2022-10-19T00:35:06;2.55;;;2.35;;
37131;SDS011;23035;50.032;21.978;2022-10-19T00:40:11;3.33;;;2.65;;
37131;SDS011;23035;50.032;21.978;2022-10-19T00:45:16;4.32;;;2.53;;
37131;SDS011;23035;50.032;21.978;2022-10-19T00:50:21;2.85;;;2.45;;
37131;SDS011;23035;50.032;21.978;2022-10-19T00:55:26;3.70;;;2.58;;
37131;SDS011;23035;50.032;21.978;2022-10-19T01:00:30;2.60;;;2.40;;
37131;SDS011;23035;50.032;21.978;2022-10-19T01:05:36;3.20;;;2.15;;
37131;SDS011;23035;50.032;21.978;2022-10-19T01:10:42;3.90;;;2.58;;
37131;SDS011;23035;50.032;21.978;2022-10-19T01:15:54;3.28;;;2.83;;
37131;SDS011;23035;50.032;21.978;2022-10-19T01:26:36;3.88;;;2.65;;
37131;SDS011;23035;50.032;21.978;2022-10-19T01:32:05;4.95;;;2.55;;
37131;SDS011;23035;50.032;21.978;2022-10-19T01:37:15;3.63;;;2.40;;
37131;SDS011;23035;50.032;21.978;2022-10-19T01:42:27;3.08;;;2.40;;
37131;SDS011;23035;50.032;21.978;2022-10-19T01:47:37;2.65;;;2.40;;
37131;SDS011;23035;50.032;21.978;2022-10-19T01:52:48;4.15;;;2.33;;
37131;SDS011;23035;50.032;21.978;2022-10-19T01:57:55;6.07;;;2.30;;
37131;SDS011;23035;50.032;21.978;2022-10-19T02:03:05;3.22;;;2.15;;
37131;SDS011;23035;50.032;21.978;2022-10-19T02:08:11;2.55;;;2.08;;
37131;SDS011;23035;50.032;21.978;2022-10-19T02:13:18;4.32;;;2.20;;
37131;SDS011;23035;50.032;21.978;2022-10-19T02:18:26;3.40;;;2.45;;
37131;SDS011;23035;50.032;21.978;2022-10-19T02:23:32;3.22;;;2.30;;
37131;SDS011;23035;50.032;21.978;2022-10-19T02:28:36;2.92;;;2.38;;
37131;SDS011;23035;50.032;21.978;2022-10-19T02:33:44;7.72;;;4.30;;
37131;SDS011;23035;50.032;21.978;2022-10-19T02:38:48;6.28;;;3.88;;
37131;SDS011;23035;50.032;21.978;2022-10-19T02:43:53;6.00;;;4.45;;
37131;SDS011;23035;50.032;21.978;2022-10-19T02:49:02;5.65;;;4.18;;
37131;SDS011;23035;50.032;21.978;2022-10-19T02:54:10;4.22;;;3.80;;
37131;SDS011;23035;50.032;21.978;2022-10-19T02:59:15;5.60;;;4.50;;
37131;SDS011;23035;50.032;21.978;2022-10-19T03:04:21;8.63;;;4.70;;
37131;SDS011;23035;50.032;21.978;2022-10-19T03:09:25;7.22;;;5.20;;
37131;SDS011;23035;50.032;21.978;2022-10-19T03:14:33;6.07;;;4.72;;
37131;SDS011;23035;50.032;21.978;2022-10-19T03:19:38;6.45;;;5.00;;
37131;SDS011;23035;50.032;21.978;2022-10-19T03:24:43;5.65;;;5.00;;
37131;SDS011;23035;50.032;21.978;2022-10-19T03:29:46;5.93;;;4.70;;
37131;SDS011;23035;50.032;21.978;2022-10-19T03:34:52;8.82;;;4.45;;
37131;SDS011;23035;50.032;21.978;2022-10-19T03:39:57;6.20;;;4.35;;
37131;SDS011;23035;50.032;21.978;2022-10-19T03:45:02;6.77;;;3.80;;
37131;SDS011;23035;50.032;21.978;2022-10-19T03:50:08;5.10;;;3.60;;
37131;SDS011;23035;50.032;21.978;2022-10-19T03:55:15;7.75;;;3.83;;
37131;SDS011;23035;50.032;21.978;2022-10-19T04:00:19;4.22;;;3.47;;
37131;SDS011;23035;50.032;21.978;2022-10-19T04:05:25;7.70;;;4.63;;
37131;SDS011;23035;50.032;21.978;2022-10-19T04:15:34;6.75;;;4.90;;
37131;SDS011;23035;50.032;21.978;2022-10-19T04:20:42;5.95;;;4.78;;
37131;SDS011;23035;50.032;21.978;2022-10-19T04:25:46;5.30;;;4.60;;
37131;SDS011;23035;50.032;21.978;2022-10-19T04:30:50;6.70;;;4.90;;
37131;SDS011;23035;50.032;21.978;2022-10-19T04:35:58;7.82;;;4.50;;
37131;SDS011;23035;50.032;21.978;2022-10-19T04:41:02;6.65;;;4.88;;
37131;SDS011;23035;50.032;21.978;2022-10-19T04:46:11;6.10;;;5.00;;
37131;SDS011;23035;50.032;21.978;2022-10-19T04:51:18;7.38;;;5.82;;
37131;SDS011;23035;50.032;21.978;2022-10-19T05:01:28;7.93;;;6.22;;
37131;SDS011;23035;50.032;21.978;2022-10-19T05:06:34;7.85;;;6.05;;
37131;SDS011;23035;50.032;21.978;2022-10-19T05:11:38;11.20;;;5.60;;
37131;SDS011;23035;50.032;21.978;2022-10-19T05:16:42;7.82;;;6.03;;
37131;SDS011;23035;50.032;21.978;2022-10-19T05:21:48;10.63;;;5.95;;
37131;SDS011;23035;50.032;21.978;2022-10-19T05:26:52;13.60;;;5.73;;
37131;SDS011;23035;50.032;21.978;2022-10-19T05:31:55;7.63;;;5.40;;
37131;SDS011;23035;50.032;21.978;2022-10-19T05:37:01;9.88;;;6.05;;
37131;SDS011;23035;50.032;21.978;2022-10-19T05:42:05;10.00;;;6.05;;
37131;SDS011;23035;50.032;21.978;2022-10-19T05:47:09;12.02;;;5.78;;
37131;SDS011;23035;50.032;21.978;2022-10-19T05:52:14;14.75;;;5.78;;
37131;SDS011;23035;50.032;21.978;2022-10-19T05:57:18;12.98;;;6.07;;
37131;SDS011;23035;50.032;21.978;2022-10-19T06:02:22;11.80;;;5.50;;
37131;SDS011;23035;50.032;21.978;2022-10-19T06:07:28;9.20;;;5.63;;
37131;SDS011;23035;50.032;21.978;2022-10-19T06:12:32;10.88;;;5.68;;
37131;SDS011;23035;50.032;21.978;2022-10-19T06:17:36;12.98;;;5.10;;
37131;SDS011;23035;50.032;21.978;2022-10-19T06:22:42;13.32;;;6.38;;
37131;SDS011;23035;50.032;21.978;2022-10-19T06:27:45;11.57;;;5.05;;
37131;SDS011;23035;50.032;21.978;2022-10-19T06:32:49;14.95;;;5.65;;
37131;SDS011;23035;50.032;21.978;2022-10-19T06:37:58;12.80;;;5.55;;
37131;SDS011;23035;50.032;21.978;2022-10-19T06:43:02;6.78;;;4.80;;
37131;SDS011;23035;50.032;21.978;2022-10-19T06:48:06;10.82;;;5.75;;
37131;SDS011;23035;50.032;21.978;2022-10-19T06:53:12;11.20;;;4.85;;
37131;SDS011;23035;50.032;21.978;2022-10-19T06:58:16;10.73;;;4.78;;
37131;SDS011;23035;50.032;21.978;2022-10-19T07:03:20;11.13;;;5.20;;
37131;SDS011;23035;50.032;21.978;2022-10-19T07:08:25;11.48;;;4.38;;
37131;SDS011;23035;50.032;21.978;2022-10-19T07:13:33;8.20;;;4.53;;
37131;SDS011;23035;50.032;21.978;2022-10-19T07:18:38;8.07;;;3.30;;
37131;SDS011;23035;50.032;21.978;2022-10-19T07:23:45;8.65;;;3.92;;
37131;SDS011;23035;50.032;21.978;2022-10-19T07:28:50;11.25;;;3.28;;
37131;SDS011;23035;50.032;21.978;2022-10-19T07:33:55;10.25;;;3.30;;
37131;SDS011;23035;50.032;21.978;2022-10-19T07:39:02;11.50;;;3.10;;
37131;SDS011;23035;50.032;21.978;2022-10-19T07:44:07;10.35;;;3.40;;
37131;SDS011;23035;50.032;21.978;2022-10-19T07:49:17;8.93;;;3.35;;
37131;SDS011;23035;50.032;21.978;2022-10-19T07:54:23;12.38;;;3.40;;
37131;SDS011;23035;50.032;21.978;2022-10-19T07:59:28;14.05;;;3.78;;
37131;SDS011;23035;50.032;21.978;2022-10-19T08:04:32;15.40;;;3.85;;
37131;SDS011;23035;50.032;21.978;2022-10-19T08:09:58;13.45;;;3.55;;
37131;SDS011;23035;50.032;21.978;2022-10-19T08:15:03;9.95;;;3.25;;
37131;SDS011;23035;50.032;21.978;2022-10-19T08:20:09;12.88;;;3.25;;
37131;SDS011;23035;50.032;21.978;2022-10-19T08:25:15;14.43;;;3.70;;
37131;SDS011;23035;50.032;21.978;2022-10-19T08:30:19;16.13;;;4.15;;
37131;SDS011;23035;50.032;21.978;2022-10-19T08:35:23;8.75;;;3.25;;
37131;SDS011;23035;50.032;21.978;2022-10-19T08:40:29;16.67;;;4.00;;
37131;SDS011;23035;50.032;21.978;2022-10-19T08:45:36;13.23;;;3.85;;
37131;SDS011;23035;50.032;21.978;2022-10-19T08:50:43;9.30;;;3.35;;
37131;SDS011;23035;50.032;21.978;2022-10-19T08:55:52;10.48;;;3.78;;
37131;SDS011;23035;50.032;21.978;2022-10-19T09:01:06;9.73;;;2.97;;
37131;SDS011;23035;50.032;21.978;2022-10-19T09:06:18;7.80;;;3.40;;
37131;SDS011;23035;50.032;21.978;2022-10-19T09:11:29;10.65;;;3.60;;
37131;SDS011;23035;50.032;21.978;2022-10-19T09:16:35;12.40;;;3.13;;
37131;SDS011;23035;50.032;21.978;2022-10-19T09:21:39;8.90;;;2.78;;
37131;SDS011;23035;50.032;21.978;2022-10-19T09:26:52;11.32;;;2.80;;
37131;SDS011;23035;50.032;21.978;2022-10-19T09:32:02;15.27;;;3.00;;
37131;SDS011;23035;50.032;21.978;2022-10-19T09:37:08;12.23;;;2.83;;
37131;SDS011;23035;50.032;21.978;2022-10-19T09:47:32;11.70;;;3.13;;
37131;SDS011;23035;50.032;21.978;2022-10-19T09:52:38;8.20;;;2.85;;
37131;SDS011;23035;50.032;21.978;2022-10-19T09:57:46;11.10;;;4.22;;
37131;SDS011;23035;50.032;21.978;2022-10-19T10:02:52;14.38;;;4.00;;
37131;SDS011;23035;50.032;21.978;2022-10-19T10:07:57;12.47;;;4.13;;
37131;SDS011;23035;50.032;21.978;2022-10-19T10:13:03;15.00;;;4.23;;
37131;SDS011;23035;50.032;21.978;2022-10-19T10:18:10;10.68;;;3.67;;
37131;SDS011;23035;50.032;21.978;2022-10-19T10:23:19;10.25;;;4.38;;
37131;SDS011;23035;50.032;21.978;2022-10-19T10:28:29;11.55;;;3.70;;
37131;SDS011;23035;50.032;21.978;2022-10-19T10:38:48;14.15;;;4.80;;
37131;SDS011;23035;50.032;21.978;2022-10-19T10:43:56;11.80;;;3.75;;
37131;SDS011;23035;50.032;21.978;2022-10-19T10:49:07;9.25;;;3.50;;
37131;SDS011;23035;50.032;21.978;2022-10-19T10:54:23;8.95;;;4.57;;
37131;SDS011;23035;50.032;21.978;2022-10-19T11:04:37;8.63;;;4.40;;
37131;SDS011;23035;50.032;21.978;2022-10-19T11:09:53;15.98;;;5.25;;
37131;SDS011;23035;50.032;21.978;2022-10-19T11:15:02;12.00;;;4.93;;
37131;SDS011;23035;50.032;21.978;2022-10-19T11:20:12;10.32;;;3.70;;
37131;SDS011;23035;50.032;21.978;2022-10-19T11:25:23;7.25;;;2.25;;
37131;SDS011;23035;50.032;21.978;2022-10-19T11:30:38;8.98;;;3.33;;
37131;SDS011;23035;50.032;21.978;2022-10-19T11:35:52;20.73;;;2.22;;
37131;SDS011;23035;50.032;21.978;2022-10-19T11:41:07;7.15;;;2.72;;
37131;SDS011;23035;50.032;21.978;2022-10-19T11:51:29;7.70;;;2.55;;
37131;SDS011;23035;50.032;21.978;2022-10-19T11:56:41;6.00;;;2.70;;
37131;SDS011;23035;50.032;21.978;2022-10-19T12:02:17;9.98;;;3.53;;
37131;SDS011;23035;50.032;21.978;2022-10-19T12:07:33;7.72;;;2.40;;
37131;SDS011;23035;50.032;21.978;2022-10-19T12:12:46;5.65;;;2.60;;
37131;SDS011;23035;50.032;21.978;2022-10-19T12:17:56;7.50;;;2.30;;
37131;SDS011;23035;50.032;21.978;2022-10-19T12:23:09;8.05;;;3.00;;
37131;SDS011;23035;50.032;21.978;2022-10-19T12:28:35;5.95;;;2.05;;
37131;SDS011;23035;50.032;21.978;2022-10-19T12:33:44;6.38;;;2.63;;
37131;SDS011;23035;50.032;21.978;2022-10-19T12:38:55;5.63;;;2.55;;
37131;SDS011;23035;50.032;21.978;2022-10-19T12:44:10;5.53;;;2.05;;
37131;SDS011;23035;50.032;21.978;2022-10-19T12:49:35;6.07;;;2.65;;
37131;SDS011;23035;50.032;21.978;2022-10-19T12:54:46;16.30;;;3.13;;
37131;SDS011;23035;50.032;21.978;2022-10-19T12:59:57;10.13;;;2.75;;
37131;SDS011;23035;50.032;21.978;2022-10-19T13:05:05;6.65;;;3.08;;
37131;SDS011;23035;50.032;21.978;2022-10-19T13:10:12;5.18;;;2.95;;
37131;SDS011;23035;50.032;21.978;2022-10-19T13:21:02;7.63;;;2.58;;
37131;SDS011;23035;50.032;21.978;2022-10-19T13:26:21;6.20;;;2.80;;
37131;SDS011;23035;50.032;21.978;2022-10-19T13:31:32;8.52;;;2.90;;
37131;SDS011;23035;50.032;21.978;2022-10-19T13:36:39;10.18;;;3.00;;
37131;SDS011;23035;50.032;21.978;2022-10-19T13:42:02;6.82;;;2.70;;
37131;SDS011;23035;50.032;21.978;2022-10-19T13:47:22;8.15;;;2.70;;
37131;SDS011;23035;50.032;21.978;2022-10-19T13:52:48;7.13;;;3.15;;
37131;SDS011;23035;50.032;21.978;2022-10-19T13:58:20;9.27;;;2.85;;
37131;SDS011;23035;50.032;21.978;2022-10-19T14:03:40;11.85;;;3.92;;
37131;SDS011;23035;50.032;21.978;2022-10-19T14:09:03;10.27;;;3.30;;
37131;SDS011;23035;50.032;21.978;2022-10-19T14:14:23;8.85;;;3.85;;
37131;SDS011;23035;50.032;21.978;2022-10-19T14:19:28;7.45;;;3.80;;
37131;SDS011;23035;50.032;21.978;2022-10-19T14:24:37;11.00;;;3.95;;
37131;SDS011;23035;50.032;21.978;2022-10-19T14:29:44;10.00;;;3.45;;
37131;SDS011;23035;50.032;21.978;2022-10-19T14:40:00;10.25;;;3.55;;
37131;SDS011;23035;50.032;21.978;2022-10-19T14:45:11;9.10;;;5.65;;
37131;SDS011;23035;50.032;21.978;2022-10-19T14:50:17;10.00;;;3.78;;
37131;SDS011;23035;50.032;21.978;2022-10-19T14:55:25;9.57;;;3.08;;
37131;SDS011;23035;50.032;21.978;2022-10-19T15:00:35;8.10;;;3.28;;
37131;SDS011;23035;50.032;21.978;2022-10-19T15:05:40;7.70;;;3.40;;
37131;SDS011;23035;50.032;21.978;2022-10-19T15:10:51;12.60;;;4.40;;
37131;SDS011;23035;50.032;21.978;2022-10-19T15:15:56;9.43;;;3.97;;
37131;SDS011;23035;50.032;21.978;2022-10-19T15:21:00;7.88;;;3.65;;
37131;SDS011;23035;50.032;21.978;2022-10-19T15:26:17;5.78;;;3.65;;
37131;SDS011;23035;50.032;21.978;2022-10-19T15:31:23;10.00;;;3.67;;
37131;SDS011;23035;50.032;21.978;2022-10-19T15:36:28;11.82;;;4.47;;
37131;SDS011;23035;50.032;21.978;2022-10-19T15:41:36;10.45;;;4.22;;
37131;SDS011;23035;50.032;21.978;2022-10-19T15:52:21;9.05;;;3.85;;
37131;SDS011;23035;50.032;21.978;2022-10-19T15:57:29;11.38;;;3.65;;
37131;SDS011;23035;50.032;21.978;2022-10-19T16:02:36;8.98;;;4.07;;
37131;SDS011;23035;50.032;21.978;2022-10-19T16:07:43;11.65;;;8.13;;
37131;SDS011;23035;50.032;21.978;2022-10-19T16:12:53;16.13;;;7.75;;
37131;SDS011;23035;50.032;21.978;2022-10-19T16:18:01;11.35;;;6.20;;
37131;SDS011;23035;50.032;21.978;2022-10-19T16:23:09;7.72;;;5.32;;
37131;SDS011;23035;50.032;21.978;2022-10-19T16:28:16;9.27;;;4.45;;
37131;SDS011;23035;50.032;21.978;2022-10-19T16:33:26;8.07;;;3.75;;
37131;SDS011;23035;50.032;21.978;2022-10-19T16:38:41;9.55;;;4.90;;
37131;SDS011;23035;50.032;21.978;2022-10-19T16:43:54;8.05;;;4.82;;
37131;SDS011;23035;50.032;21.978;2022-10-19T16:49:01;7.78;;;5.13;;
37131;SDS011;23035;50.032;21.978;2022-10-19T16:54:07;7.45;;;5.43;;
37131;SDS011;23035;50.032;21.978;2022-10-19T16:59:23;10.88;;;4.97;;
37131;SDS011;23035;50.032;21.978;2022-10-19T17:04:38;5.18;;;3.50;;
37131;SDS011;23035;50.032;21.978;2022-10-19T17:10:23;6.40;;;3.70;;
37131;SDS011;23035;50.032;21.978;2022-10-19T17:15:38;5.87;;;3.50;;
37131;SDS011;23035;50.032;21.978;2022-10-19T17:20:48;10.80;;;3.95;;
37131;SDS011;23035;50.032;21.978;2022-10-19T17:25:52;5.13;;;3.33;;
37131;SDS011;23035;50.032;21.978;2022-10-19T17:31:02;5.50;;;3.22;;
37131;SDS011;23035;50.032;21.978;2022-10-19T17:36:08;6.57;;;3.42;;
37131;SDS011;23035;50.032;21.978;2022-10-19T17:41:14;8.48;;;3.70;;
37131;SDS011;23035;50.032;21.978;2022-10-19T17:46:22;4.30;;;2.70;;
37131;SDS011;23035;50.032;21.978;2022-10-19T17:51:27;7.10;;;3.00;;
37131;SDS011;23035;50.032;21.978;2022-10-19T17:56:35;6.18;;;3.60;;
37131;SDS011;23035;50.032;21.978;2022-10-19T18:01:41;8.17;;;3.57;;
37131;SDS011;23035;50.032;21.978;2022-10-19T18:06:45;7.88;;;3.97;;
37131;SDS011;23035;50.032;21.978;2022-10-19T18:11:49;8.60;;;4.38;;
37131;SDS011;23035;50.032;21.978;2022-10-19T18:16:54;9.68;;;4.35;;
37131;SDS011;23035;50.032;21.978;2022-10-19T18:21:58;10.47;;;4.10;;
37131;SDS011;23035;50.032;21.978;2022-10-19T18:27:02;10.18;;;5.22;;
37131;SDS011;23035;50.032;21.978;2022-10-19T18:32:07;10.80;;;4.57;;
37131;SDS011;23035;50.032;21.978;2022-10-19T18:37:11;10.90;;;5.05;;
37131;SDS011;23035;50.032;21.978;2022-10-19T18:42:16;10.68;;;3.92;;
37131;SDS011;23035;50.032;21.978;2022-10-19T18:47:21;9.68;;;4.80;;
37131;SDS011;23035;50.032;21.978;2022-10-19T18:52:25;9.73;;;4.55;;
37131;SDS011;23035;50.032;21.978;2022-10-19T18:57:29;9.18;;;4.57;;
37131;SDS011;23035;50.032;21.978;2022-10-19T19:02:35;9.30;;;5.05;;
37131;SDS011;23035;50.032;21.978;2022-10-19T19:07:48;9.43;;;4.50;;
37131;SDS011;23035;50.032;21.978;2022-10-19T19:12:53;8.95;;;4.40;;
37131;SDS011;23035;50.032;21.978;2022-10-19T19:17:58;8.13;;;4.75;;
37131;SDS011;23035;50.032;21.978;2022-10-19T19:23:02;7.72;;;4.80;;
37131;SDS011;23035;50.032;21.978;2022-10-19T19:28:07;10.77;;;5.53;;
37131;SDS011;23035;50.032;21.978;2022-10-19T19:33:13;12.45;;;5.60;;
37131;SDS011;23035;50.032;21.978;2022-10-19T19:43:29;10.63;;;4.38;;
37131;SDS011;23035;50.032;21.978;2022-10-19T19:48:36;10.07;;;4.95;;
37131;SDS011;23035;50.032;21.978;2022-10-19T19:53:42;7.13;;;4.10;;
37131;SDS011;23035;50.032;21.978;2022-10-19T19:58:46;8.10;;;3.70;;
37131;SDS011;23035;50.032;21.978;2022-10-19T20:03:51;8.68;;;4.20;;
37131;SDS011;23035;50.032;21.978;2022-10-19T20:08:56;7.80;;;4.25;;
37131;SDS011;23035;50.032;21.978;2022-10-19T20:14:01;8.02;;;3.35;;
37131;SDS011;23035;50.032;21.978;2022-10-19T20:19:08;10.77;;;4.90;;
37131;SDS011;23035;50.032;21.978;2022-10-19T20:24:13;10.88;;;4.85;;
37131;SDS011;23035;50.032;21.978;2022-10-19T20:29:18;8.20;;;4.85;;
37131;SDS011;23035;50.032;21.978;2022-10-19T20:34:24;11.90;;;4.68;;
37131;SDS011;23035;50.032;21.978;2022-10-19T20:39:29;10.93;;;5.70;;
37131;SDS011;23035;50.032;21.978;2022-10-19T20:44:33;8.80;;;4.82;;
37131;SDS011;23035;50.032;21.978;2022-10-19T20:49:39;8.07;;;4.15;;
37131;SDS011;23035;50.032;21.978;2022-10-19T20:54:46;8.82;;;4.45;;
37131;SDS011;23035;50.032;21.978;2022-10-19T20:59:51;10.02;;;4.50;;
37131;SDS011;23035;50.032;21.978;2022-10-19T21:05:01;9.55;;;5.10;;
37131;SDS011;23035;50.032;21.978;2022-10-19T21:10:06;8.45;;;4.07;;
37131;SDS011;23035;50.032;21.978;2022-10-19T21:15:11;9.45;;;4.57;;
37131;SDS011;23035;50.032;21.978;2022-10-19T21:20:19;11.73;;;4.90;;
37131;SDS011;23035;50.032;21.978;2022-10-19T21:25:23;8.35;;;4.38;;
37131;SDS011;23035;50.032;21.978;2022-10-19T21:30:34;8.00;;;3.85;;
37131;SDS011;23035;50.032;21.978;2022-10-19T21:35:43;7.78;;;4.30;;
37131;SDS011;23035;50.032;21.978;2022-10-19T21:40:52;9.75;;;4.55;;
37131;SDS011;23035;50.032;21.978;2022-10-19T21:46:03;7.68;;;4.10;;
37131;SDS011;23035;50.032;21.978;2022-10-19T21:51:19;8.88;;;4.15;;
37131;SDS011;23035;50.032;21.978;2022-10-19T22:03:05;10.77;;;4.05;;
37131;SDS011;23035;50.032;21.978;2022-10-19T22:16:05;8.80;;;4.03;;
37131;SDS011;23035;50.032;21.978;2022-10-19T22:21:59;10.48;;;4.20;;
37131;SDS011;23035;50.032;21.978;2022-10-19T22:28:00;12.15;;;3.95;;
37131;SDS011;23035;50.032;21.978;2022-10-19T22:33:59;6.93;;;4.30;;
37131;SDS011;23035;50.032;21.978;2022-10-19T22:45:09;7.93;;;4.05;;
37131;SDS011;23035;50.032;21.978;2022-10-19T22:56:47;7.50;;;3.78;;
37131;SDS011;23035;50.032;21.978;2022-10-19T23:02:50;15.20;;;5.13;;
37131;SDS011;23035;50.032;21.978;2022-10-19T23:08:58;6.50;;;3.95;;
37131;SDS011;23035;50.032;21.978;2022-10-19T23:14:59;11.23;;;4.03;;
37131;SDS011;23035;50.032;21.978;2022-10-19T23:21:13;7.38;;;3.83;;
37131;SDS011;23035;50.032;21.978;2022-10-19T23:34:07;7.72;;;3.78;;
37131;SDS011;23035;50.032;21.978;2022-10-19T23:40:32;8.60;;;4.57;;
37131;SDS011;23035;50.032;21.978;2022-10-19T23:46:49;7.72;;;3.90;;
37131;SDS011;23035;50.032;21.978;2022-10-19T23:53:00;9.38;;;4.68;;
